Terminal Aerodrome Forecast
Issued by NWS Wakefield, VA

Home | Current Version | Previous Version | Text Only | Print | Product List | Glossary On
Versions: 1 2 3 4 5 6 7 8 9 10 11 12 13 14 15 16 17
000
FTUS41 KAKQ 200500
TAFORF
TAF
KORF 200540Z 2006/2106 04012KT P6SM SCT100 OVC200
     FM201200 05022G32KT P6SM SCT050 BKN200
     FM201700 06019G30KT P6SM SCT060 OVC120=

USA.gov is the U.S. government's official web portal to all federal, state and local government web resources and services.